Strona główna
METAR-TAF:

METAR-TAF

Lotnisko :

Port lotniczy Norwich

Norwich, Anglia

Szerokość geograficzna: 52-38N, Długość geograficzna: 001-18E, wysokość: 14 m

Aktualna obserwacja pogody

Raport powstał 40 minut temu, godzina 07:50 UTC
Wiatr 6 kt od wschodnio-południowy wschód
Temperatura 11°C
Wilgotność 82%
Ciśnienie 1027 hPa
Widzialność 10 km lub więcej
Brak chmur poniżej 1500 m i brak chmur cumulonimbus

METAR: EGSH 100750Z 11006KT CAVOK 11/08 Q1027 NOSIG

czas: 09:30 (08:30 UTC)

Prognoza

Raport powstał 3 godziny i 36 minut temu, godzina 04:54 UTC
Prognoza ważna od 10 godzina 06 UTC do 10 godzina 15 UTC
Wiatr 6 kt od wschód
Widzialność 10 km lub więcej
Rozproszone chmury na wysokości 4500 ft
Prawdopodobieństwo 30%
od 10 godzina 06 UTC do 10 godzina 09 UTC
Widzialność: 7000 m

TAF: EGSH 100454Z 1006/1015 08006KT 9999 SCT045 PROB30 1006/1009 7000

Obserwacja i prognoza pogody dla ponad 4000 lotnisk (raport METAR i TAF).

Dostępne stacje oznaczono żółtymi i czerwonymi punktami na mapie.

Najedź kursorem aby zobaczyć nazwę stacji.

Kliknij aby zobaczyć obserwacje i prognozy pogody.

Aby zmienić mapę: kliknij na zielony przycisk z czarnym krzyżykiem, aby powiększyć; na zielony przycisk z myślnikiem, aby pomniejszyć; na zielone strzałki, aby przejść do map sąsiednich.


METAR-TAF: